CKG5 weather

Manitou Airport
Manitou, Manitoba, Canada

Public forecast

Using degrees Celsius for public forecast. Weather courtesy of forecast.io.

METAR (pilot weather report)

Closest report is Robertson Field, 30.3 nm (56.2 km) S. Retrieved 2019/05/21 12:15 UTC (0 seconds ago):

KD55 211215Z AUTO 10004KT 10SM CLR A3010 RMK AO2

TAF (pilot weather forecast)

Closest forecast is Southport Airport, 40.5 nm (75.0 km) NNE. Retrieved 2019/05/21 12:18 UTC (0 seconds ago):

TAF CYPG 211215Z 2112/2124 11005KT P6SM FEW240 BECMG 2116/2118 09012KT BKN220 RMK NXT FCST BY 211800Z